createdAt,value
2018-10-18T00:00:33.913Z,101456.45
2018-10-18T00:03:05.440Z,101457.64
2018-10-18T00:05:33.717Z,101460.68
2018-10-18T00:08:01.952Z,101458.56
2018-10-18T00:10:30.209Z,101462.73
2018-10-18T00:12:58.422Z,101461.07
2018-10-18T00:15:26.777Z,101461.77
2018-10-18T00:17:55.010Z,101457.23
2018-10-18T00:20:23.234Z,101461.77
2018-10-18T00:22:51.539Z,101460.00
2018-10-18T00:25:19.781Z,101463.06
2018-10-18T00:27:48.037Z,101454.51
2018-10-18T00:30:16.467Z,101462.97
2018-10-18T00:32:45.205Z,101465.13
2018-10-18T00:35:13.716Z,101459.00
2018-10-18T00:37:41.972Z,101454.36
2018-10-18T00:40:11.689Z,101458.03
2018-10-18T00:42:39.985Z,101463.52
2018-10-18T00:45:09.158Z,101466.86
2018-10-18T00:47:37.420Z,101471.34
2018-10-18T00:50:06.869Z,101467.52
2018-10-18T00:52:35.038Z,101468.70
2018-10-18T00:55:03.287Z,101471.67
2018-10-18T00:57:31.597Z,101480.27
2018-10-18T00:59:59.850Z,101475.27
2018-10-18T01:02:28.073Z,101481.87
2018-10-18T01:04:56.287Z,101488.98
2018-10-18T01:07:24.659Z,101489.62
2018-10-18T01:09:52.915Z,101495.28
2018-10-18T01:12:21.263Z,101494.92
2018-10-18T01:14:49.410Z,101502.53
2018-10-18T01:17:17.650Z,101501.21
2018-10-18T01:19:45.906Z,101498.06
2018-10-18T01:22:14.152Z,101499.39
2018-10-18T01:24:42.389Z,101499.55
2018-10-18T01:27:10.666Z,101504.98
2018-10-18T01:29:38.957Z,101505.16
2018-10-18T01:32:07.507Z,101505.79
2018-10-18T01:34:35.717Z,101512.58
2018-10-18T01:37:03.993Z,101514.20
2018-10-18T01:39:32.307Z,101515.33
2018-10-18T01:42:00.607Z,101517.95
2018-10-18T01:44:28.828Z,101521.42
2018-10-18T01:46:57.065Z,101518.94
2018-10-18T01:49:25.335Z,101519.08
2018-10-18T01:51:53.561Z,101515.77
2018-10-18T01:54:21.798Z,101517.23
2018-10-18T01:56:50.094Z,101517.39
2018-10-18T01:59:18.322Z,101509.45
2018-10-18T02:01:46.562Z,101513.75
2018-10-18T02:04:14.877Z,101512.23
2018-10-18T02:06:43.093Z,101509.59
2018-10-18T02:09:12.280Z,101511.27
2018-10-18T02:11:41.057Z,101513.55
2018-10-18T02:14:09.342Z,101516.89
2018-10-18T02:16:37.561Z,101520.70
2018-10-18T02:19:06.269Z,101521.53
2018-10-18T02:21:34.482Z,101520.20
2018-10-18T02:24:02.786Z,101520.07
2018-10-18T02:26:31.033Z,101524.57
2018-10-18T02:28:59.250Z,101520.80
2018-10-18T02:31:27.498Z,101521.45
2018-10-18T02:33:55.728Z,101525.13
2018-10-18T02:36:24.074Z,101523.50
2018-10-18T02:38:52.282Z,101524.22
2018-10-18T02:41:20.618Z,101530.23
2018-10-18T02:43:48.813Z,101528.42
2018-10-18T02:46:17.054Z,101531.59
2018-10-18T02:48:45.317Z,101531.28
2018-10-18T02:51:13.540Z,101532.80
2018-10-18T02:53:41.806Z,101532.50
2018-10-18T02:56:10.045Z,101539.45
2018-10-18T02:58:38.360Z,101534.84
2018-10-18T03:01:06.625Z,101537.84
2018-10-18T03:03:34.849Z,101537.52
2018-10-18T03:06:03.097Z,101537.35
2018-10-18T03:08:31.336Z,101535.22
2018-10-18T03:10:59.606Z,101541.05
2018-10-18T03:13:27.890Z,101540.23
2018-10-18T03:15:56.193Z,101543.25
2018-10-18T03:18:24.397Z,101545.23
2018-10-18T03:20:52.665Z,101554.06
2018-10-18T03:23:20.929Z,101545.34
2018-10-18T03:25:49.150Z,101550.80
2018-10-18T03:28:17.476Z,101558.12
2018-10-18T03:30:45.821Z,101547.51
2018-10-18T03:33:14.094Z,101545.55
2018-10-18T03:35:42.353Z,101548.03
2018-10-18T03:38:10.595Z,101550.55
2018-10-18T03:40:38.866Z,101552.70
2018-10-18T03:43:07.121Z,101553.50
2018-10-18T03:45:35.401Z,101560.27
2018-10-18T03:48:03.728Z,101564.39
2018-10-18T03:50:31.894Z,101561.38
2018-10-18T03:53:00.146Z,101568.03
2018-10-18T03:55:28.368Z,101567.20
2018-10-18T03:57:56.632Z,101564.91
2018-10-18T04:00:24.860Z,101562.59
2018-10-18T04:02:53.085Z,101566.90
2018-10-18T04:05:21.366Z,101571.56
2018-10-18T04:07:49.610Z,101565.23
2018-10-18T04:10:17.925Z,101570.69
2018-10-18T04:12:46.198Z,101568.72
2018-10-18T04:15:14.409Z,101575.53
2018-10-18T04:17:42.674Z,101578.02
2018-10-18T04:20:10.878Z,101578.84
2018-10-18T04:22:39.105Z,101580.53
2018-10-18T04:25:07.750Z,101582.00
2018-10-18T04:27:35.993Z,101577.38
2018-10-18T04:30:04.390Z,101574.88
2018-10-18T04:32:32.564Z,101576.55
2018-10-18T04:35:00.817Z,101573.02
2018-10-18T04:37:35.833Z,101577.31
2018-10-18T04:40:04.001Z,101571.02
2018-10-18T04:42:32.243Z,101572.17
2018-10-18T04:45:00.489Z,101580.98
2018-10-18T04:47:28.850Z,101581.17
2018-10-18T04:49:57.023Z,101583.32
2018-10-18T04:52:25.273Z,101578.84
2018-10-18T04:54:53.508Z,101588.48
2018-10-18T04:57:22.206Z,101580.17
2018-10-18T04:59:50.409Z,101582.36
2018-10-18T05:02:18.657Z,101583.69
2018-10-18T05:04:58.414Z,101578.84
2018-10-18T05:07:26.957Z,101580.98
2018-10-18T05:09:55.233Z,101580.95
2018-10-18T05:12:23.456Z,101581.04
2018-10-18T05:14:51.737Z,101586.31
2018-10-18T05:17:20.023Z,101588.30
2018-10-18T05:19:48.287Z,101589.77
2018-10-18T05:22:16.797Z,101591.59
2018-10-18T05:24:45.062Z,101587.61
2018-10-18T05:27:13.290Z,101596.26
2018-10-18T05:29:41.570Z,101597.91
2018-10-18T05:32:09.817Z,101596.78
2018-10-18T05:34:38.078Z,101602.41
2018-10-18T05:37:06.499Z,101603.23
2018-10-18T05:39:34.697Z,101601.78
2018-10-18T05:42:02.977Z,101608.23
2018-10-18T05:44:31.240Z,101605.95
2018-10-18T05:46:59.599Z,101610.78
2018-10-18T05:49:27.841Z,101617.24
2018-10-18T05:51:56.097Z,101614.42
2018-10-18T05:54:24.371Z,101614.28
2018-10-18T05:56:52.657Z,101617.27
2018-10-18T05:59:20.953Z,101617.78
2018-10-18T06:01:49.195Z,101618.48
2018-10-18T06:04:17.441Z,101615.33
2018-10-18T06:06:45.685Z,101613.70
2018-10-18T06:09:23.021Z,101617.34
2018-10-18T06:11:51.370Z,101621.32
2018-10-18T06:14:19.645Z,101616.34
2018-10-18T06:16:47.942Z,101613.20
2018-10-18T06:19:16.316Z,101610.05
2018-10-18T06:21:44.581Z,101613.72
2018-10-18T06:24:12.909Z,101618.03
2018-10-18T06:26:41.197Z,101625.02
2018-10-18T06:29:09.461Z,101627.31
2018-10-18T06:31:37.811Z,101626.34
2018-10-18T06:34:06.289Z,101632.97
2018-10-18T06:36:34.581Z,101635.64
2018-10-18T06:39:02.897Z,101633.33
2018-10-18T06:41:31.184Z,101636.34
2018-10-18T06:43:59.432Z,101637.49
2018-10-18T06:46:27.689Z,101641.16
2018-10-18T06:48:56.048Z,101644.34
2018-10-18T06:51:24.253Z,101647.51
2018-10-18T06:53:52.583Z,101651.37
2018-10-18T06:56:20.863Z,101647.03
2018-10-18T06:58:49.173Z,101650.55
2018-10-18T07:01:17.434Z,101647.53
2018-10-18T07:03:45.692Z,101667.12
2018-10-18T07:06:14.040Z,101658.52
2018-10-18T07:08:42.276Z,101653.56
2018-10-18T07:11:10.542Z,101652.94
2018-10-18T07:13:38.777Z,101650.80
2018-10-18T07:16:07.040Z,101652.66
2018-10-18T07:18:35.329Z,101656.84
2018-10-18T07:21:03.575Z,101662.52
2018-10-18T07:23:31.832Z,101661.34
2018-10-18T07:26:00.097Z,101667.84
2018-10-18T07:28:28.378Z,101671.49
2018-10-18T07:30:56.679Z,101667.16
2018-10-18T07:33:24.938Z,101670.17
2018-10-18T07:35:53.248Z,101678.58
2018-10-18T07:38:21.494Z,101677.87
2018-10-18T07:40:49.763Z,101676.02
2018-10-18T07:43:18.113Z,101676.00
2018-10-18T07:45:46.365Z,101683.32
2018-10-18T07:48:14.713Z,101682.62
2018-10-18T07:50:42.980Z,101686.23
2018-10-18T07:54:52.019Z,101694.14
2018-10-18T07:57:20.336Z,101694.78
2018-10-18T07:59:48.750Z,101690.80
2018-10-18T08:02:17.046Z,101696.62
2018-10-18T08:04:45.370Z,101694.47
2018-10-18T08:07:13.768Z,101694.97
2018-10-18T08:09:42.034Z,101698.17
2018-10-18T08:12:10.356Z,101700.56
2018-10-18T08:14:38.687Z,101693.77
2018-10-18T08:17:07.038Z,101698.07
2018-10-18T08:19:35.294Z,101701.72
2018-10-18T08:22:03.610Z,101709.88
2018-10-18T08:24:31.916Z,101700.44
2018-10-18T08:27:00.206Z,101703.30
2018-10-18T08:29:28.526Z,101703.36
2018-10-18T08:31:56.845Z,101704.59
2018-10-18T08:34:25.200Z,101707.13
2018-10-18T08:36:53.621Z,101709.11
2018-10-18T08:39:21.953Z,101709.62
2018-10-18T08:41:50.256Z,101719.66
2018-10-18T08:44:18.557Z,101718.20
2018-10-18T08:46:46.840Z,101712.06
2018-10-18T08:49:15.205Z,101717.38
2018-10-18T08:51:43.480Z,101713.20
2018-10-18T08:54:11.809Z,101715.66
2018-10-18T08:56:40.140Z,101720.23
2018-10-18T08:59:08.519Z,101723.02
2018-10-18T09:01:36.853Z,101728.32
2018-10-18T09:04:05.409Z,101733.48
2018-10-18T09:06:33.729Z,101735.61
2018-10-18T09:09:02.050Z,101736.95
2018-10-18T09:11:30.369Z,101737.98
2018-10-18T09:13:58.718Z,101733.88
2018-10-18T09:16:27.003Z,101721.26
2018-10-18T09:18:55.366Z,101724.63
2018-10-18T09:21:23.684Z,101727.90
2018-10-18T09:23:52.039Z,101734.20
2018-10-18T09:26:20.315Z,101734.66
2018-10-18T09:28:48.784Z,101735.16
2018-10-18T09:31:17.179Z,101732.28
2018-10-18T09:33:45.412Z,101730.22
2018-10-18T09:36:13.718Z,101730.25
2018-10-18T09:38:42.020Z,101725.30
2018-10-18T09:41:10.319Z,101729.48
2018-10-18T09:43:38.625Z,101733.79
2018-10-18T09:46:07.072Z,101740.23
2018-10-18T09:48:35.678Z,101734.67
2018-10-18T09:51:03.997Z,101733.81
2018-10-18T09:53:32.366Z,101739.25
2018-10-18T09:56:00.767Z,101732.63
2018-10-18T09:58:29.159Z,101742.33
2018-10-18T10:01:02.789Z,101742.70
2018-10-18T10:03:31.100Z,101741.70
2018-10-18T10:05:59.426Z,101746.38
2018-10-18T10:08:27.731Z,101747.88
2018-10-18T10:10:56.038Z,101750.92
2018-10-18T10:13:24.478Z,101753.77
2018-10-18T10:15:52.621Z,101754.13
2018-10-18T10:18:21.004Z,101758.80
2018-10-18T10:20:49.263Z,101759.19
2018-10-18T10:23:17.575Z,101755.87
2018-10-18T10:25:45.873Z,101760.03
2018-10-18T10:28:14.181Z,101756.72
2018-10-18T10:30:42.463Z,101754.20
2018-10-18T10:33:10.901Z,101752.37
2018-10-18T10:35:39.144Z,101749.22
2018-10-18T10:38:07.440Z,101750.20
2018-10-18T10:40:35.726Z,101749.52
2018-10-18T10:43:04.514Z,101751.70
2018-10-18T10:45:32.817Z,101746.56
2018-10-18T10:48:01.190Z,101750.70
2018-10-18T10:50:29.471Z,101745.87
2018-10-18T10:52:57.817Z,101748.87
2018-10-18T10:55:26.127Z,101743.73
2018-10-18T10:57:54.679Z,101743.20
2018-10-18T11:00:37.380Z,101737.56
2018-10-18T11:03:05.763Z,101743.55
2018-10-18T11:05:34.064Z,101734.91
2018-10-18T11:08:02.414Z,101742.22
2018-10-18T11:10:30.684Z,101736.09
2018-10-18T11:12:58.970Z,101735.56
2018-10-18T11:15:27.264Z,101734.09
2018-10-18T11:17:55.567Z,101730.72
2018-10-18T11:20:23.899Z,101725.10
2018-10-18T11:22:52.231Z,101721.28
2018-10-18T11:25:20.516Z,101720.78
2018-10-18T11:27:48.821Z,101716.09
2018-10-18T11:30:17.129Z,101715.90
2018-10-18T11:32:45.455Z,101716.67
2018-10-18T11:35:13.772Z,101715.78
2018-10-18T11:37:42.057Z,101722.12
2018-10-18T11:40:10.360Z,101722.78
2018-10-18T11:42:38.708Z,101725.67
2018-10-18T11:45:07.032Z,101723.52
2018-10-18T11:47:35.383Z,101724.02
2018-10-18T11:50:03.759Z,101722.73
2018-10-18T11:52:32.022Z,101724.22
2018-10-18T11:55:00.328Z,101723.23
2018-10-18T11:57:28.628Z,101725.55
2018-10-18T11:59:56.920Z,101721.05
2018-10-18T12:02:25.300Z,101716.84
2018-10-18T12:04:53.594Z,101713.96
2018-10-18T12:07:21.910Z,101711.92
2018-10-18T12:09:50.234Z,101713.08
2018-10-18T12:12:18.540Z,101714.23
2018-10-18T12:14:46.845Z,101719.41
2018-10-18T12:17:15.210Z,101716.44
2018-10-18T12:19:43.476Z,101717.28
2018-10-18T12:22:11.801Z,101724.34
2018-10-18T12:24:40.287Z,101729.86
2018-10-18T12:27:08.572Z,101718.58
2018-10-18T12:29:36.869Z,101730.41
2018-10-18T12:32:05.504Z,101719.75
2018-10-18T12:34:33.766Z,101722.41
2018-10-18T12:37:02.192Z,101723.42
2018-10-18T12:39:30.593Z,101723.74
2018-10-18T12:41:58.835Z,101725.58
2018-10-18T12:44:31.456Z,101735.72
2018-10-18T12:46:59.791Z,101734.92
2018-10-18T12:49:28.103Z,101731.56
2018-10-18T12:51:56.422Z,101729.42
2018-10-18T12:54:24.764Z,101730.42
2018-10-18T12:56:53.143Z,101733.41
2018-10-18T12:59:21.431Z,101739.06
2018-10-18T13:01:49.795Z,101737.23
2018-10-18T13:04:18.094Z,101733.08
2018-10-18T13:06:46.578Z,101746.55
2018-10-18T13:09:14.887Z,101738.89
2018-10-18T13:11:43.258Z,101741.22
2018-10-18T13:14:11.694Z,101748.05
2018-10-18T13:16:39.890Z,101738.23
2018-10-18T13:19:08.742Z,101743.39
2018-10-18T13:21:37.087Z,101746.23
2018-10-18T13:24:05.819Z,101736.75
2018-10-18T13:26:34.436Z,101738.91
2018-10-18T13:29:02.743Z,101737.56
2018-10-18T13:31:31.114Z,101735.27
2018-10-18T13:33:59.475Z,101722.94
2018-10-18T13:36:27.780Z,101722.60
2018-10-18T13:38:56.128Z,101727.77
2018-10-18T13:41:24.532Z,101730.41
2018-10-18T13:43:52.871Z,101733.40
2018-10-18T13:46:21.234Z,101744.22
2018-10-18T13:48:49.572Z,101730.72
2018-10-18T13:51:18.045Z,101731.38
2018-10-18T13:53:46.348Z,101734.03
2018-10-18T13:56:14.801Z,101725.05
2018-10-18T13:58:43.598Z,101732.20
2018-10-18T14:01:11.942Z,101725.91
2018-10-18T14:03:40.231Z,101724.39
2018-10-18T14:06:08.543Z,101722.44
2018-10-18T14:08:36.949Z,101722.09
2018-10-18T14:11:05.431Z,101719.78
2018-10-18T14:13:33.747Z,101719.26
2018-10-18T14:16:02.078Z,101719.94
2018-10-18T14:18:30.363Z,101715.63
2018-10-18T14:20:58.740Z,101716.78
2018-10-18T14:23:27.123Z,101720.94
2018-10-18T14:25:55.494Z,101730.41
2018-10-18T14:28:23.784Z,101732.58
2018-10-18T14:30:52.177Z,101730.04
2018-10-18T14:33:20.491Z,101728.39
2018-10-18T14:35:48.839Z,101737.17
2018-10-18T14:38:17.222Z,101732.20
2018-10-18T14:40:45.514Z,101726.03
2018-10-18T14:43:14.124Z,101730.52
2018-10-18T14:45:42.412Z,101720.53
2018-10-18T14:48:10.752Z,101723.70
2018-10-18T14:50:39.144Z,101723.52
2018-10-18T14:53:07.480Z,101721.54
2018-10-18T14:55:35.862Z,101711.55
2018-10-18T14:58:04.164Z,101719.34
2018-10-18T15:00:32.476Z,101719.98
2018-10-18T15:03:00.779Z,101715.63
2018-10-18T15:05:29.060Z,101712.33
2018-10-18T15:07:57.398Z,101720.80
2018-10-18T15:10:25.915Z,101719.11
2018-10-18T15:12:54.236Z,101724.10
2018-10-18T15:15:22.532Z,101715.80
2018-10-18T15:17:50.895Z,101713.47
2018-10-18T15:20:19.203Z,101719.28
2018-10-18T15:22:47.503Z,101722.44
2018-10-18T15:25:15.877Z,101720.74
2018-10-18T15:27:44.357Z,101727.06
2018-10-18T15:30:13.304Z,101727.56
2018-10-18T15:32:41.585Z,101732.51
2018-10-18T15:35:11.086Z,101729.83
2018-10-18T15:37:39.511Z,101723.91
2018-10-18T15:40:08.266Z,101725.66
2018-10-18T15:42:36.905Z,101727.30
2018-10-18T15:45:05.872Z,101733.08
2018-10-18T15:47:34.142Z,101734.13
2018-10-18T15:50:02.479Z,101747.03
2018-10-18T15:52:30.810Z,101743.35
2018-10-18T15:54:59.120Z,101742.83
2018-10-18T15:57:27.438Z,101745.63
2018-10-18T15:59:55.842Z,101749.25
2018-10-18T16:02:24.184Z,101748.64
2018-10-18T16:04:52.498Z,101757.23
2018-10-18T16:07:20.856Z,101756.51
2018-10-18T16:09:49.176Z,101760.89
2018-10-18T16:12:17.507Z,101756.35
2018-10-18T16:14:45.855Z,101759.56
2018-10-18T16:17:14.229Z,101761.62
2018-10-18T16:19:42.466Z,101763.57
2018-10-18T16:22:10.755Z,101768.54
2018-10-18T16:24:39.097Z,101779.23
2018-10-18T16:27:07.444Z,101772.66
2018-10-18T16:29:35.771Z,101777.72
2018-10-18T16:32:04.229Z,101778.95
2018-10-18T16:34:32.487Z,101789.52
2018-10-18T16:37:00.813Z,101789.73
2018-10-18T16:39:29.189Z,101788.85
2018-10-18T16:41:57.563Z,101793.02
2018-10-18T16:44:25.846Z,101794.16
2018-10-18T16:46:54.155Z,101796.16
2018-10-18T16:49:22.456Z,101791.22
2018-10-18T16:51:50.892Z,101786.28
2018-10-18T16:54:19.293Z,101789.58
2018-10-18T16:56:47.687Z,101795.86
2018-10-18T16:59:16.030Z,101795.70
2018-10-18T17:01:44.340Z,101796.95
2018-10-18T17:04:12.689Z,101793.48
2018-10-18T17:06:40.908Z,101788.36
2018-10-18T17:09:10.181Z,101787.41
2018-10-18T17:11:38.761Z,101790.45
2018-10-18T17:14:07.151Z,101790.78
2018-10-18T17:16:35.498Z,101789.87
2018-10-18T17:19:03.788Z,101796.83
2018-10-18T17:21:32.072Z,101797.38
2018-10-18T17:24:00.394Z,101799.25
2018-10-18T17:26:28.772Z,101803.30
2018-10-18T17:28:57.031Z,101800.83
2018-10-18T17:31:25.342Z,101805.63
2018-10-18T17:33:53.670Z,101811.14
2018-10-18T17:36:21.955Z,101817.63
2018-10-18T17:38:50.251Z,101812.87
2018-10-18T17:41:18.559Z,101821.00
2018-10-18T17:43:46.842Z,101818.17
2018-10-18T17:46:15.239Z,101819.83
2018-10-18T17:48:43.568Z,101821.78
2018-10-18T17:51:11.843Z,101817.97
2018-10-18T17:53:40.148Z,101820.28
2018-10-18T17:56:08.556Z,101824.25
2018-10-18T17:58:36.862Z,101818.95
2018-10-18T18:01:05.479Z,101828.61
2018-10-18T18:03:33.924Z,101829.59
2018-10-18T18:06:02.324Z,101831.91
2018-10-18T18:08:30.563Z,101836.78
2018-10-18T18:10:58.886Z,101839.09
2018-10-18T18:13:27.194Z,101839.51
2018-10-18T18:15:55.524Z,101850.25
2018-10-18T18:18:23.852Z,101840.72
2018-10-18T18:20:52.145Z,101834.67
2018-10-18T18:23:20.464Z,101837.26
2018-10-18T18:25:48.774Z,101834.73
2018-10-18T18:28:17.088Z,101841.67
2018-10-18T18:30:45.391Z,101834.01
2018-10-18T18:33:13.657Z,101845.92
2018-10-18T18:35:41.931Z,101842.98
2018-10-18T18:38:10.239Z,101843.45
2018-10-18T18:40:38.519Z,101848.13
2018-10-18T18:43:06.872Z,101849.17
2018-10-18T18:45:36.203Z,101857.50
2018-10-18T18:48:05.244Z,101859.88
2018-10-18T18:50:33.558Z,101854.09
2018-10-18T18:53:02.302Z,101858.64
2018-10-18T18:55:30.517Z,101864.33
2018-10-18T18:57:58.951Z,101869.77
2018-10-18T19:00:27.267Z,101870.55
2018-10-18T19:02:55.558Z,101874.52
2018-10-18T19:05:23.894Z,101879.66
2018-10-18T19:07:52.201Z,101867.59
2018-10-18T19:10:20.544Z,101869.07
2018-10-18T19:12:48.827Z,101874.70
2018-10-18T19:15:17.140Z,101877.02
2018-10-18T19:17:45.422Z,101875.75
2018-10-18T19:20:13.691Z,101876.03
2018-10-18T19:22:42.094Z,101878.78
2018-10-18T19:25:10.284Z,101877.67
2018-10-18T19:27:39.157Z,101880.32
2018-10-18T19:30:08.982Z,101877.03
2018-10-18T19:32:37.283Z,101880.81
2018-10-18T19:35:05.615Z,101881.43
2018-10-18T19:37:33.903Z,101889.16
2018-10-18T19:40:02.236Z,101883.46
2018-10-18T19:42:30.556Z,101885.83
2018-10-18T19:44:58.857Z,101883.80
2018-10-18T19:47:27.164Z,101883.58
2018-10-18T19:49:55.487Z,101882.88
2018-10-18T19:52:24.314Z,101888.66
2018-10-18T19:54:52.443Z,101887.45
2018-10-18T19:57:20.743Z,101888.06
2018-10-18T19:59:49.030Z,101881.60
2018-10-18T20:02:17.304Z,101886.89
2018-10-18T20:04:45.599Z,101889.05
2018-10-18T20:07:13.919Z,101895.10
2018-10-18T20:09:42.295Z,101890.91
2018-10-18T20:12:10.610Z,101899.00
2018-10-18T20:14:38.852Z,101898.02
2018-10-18T20:17:07.595Z,101898.02
2018-10-18T20:19:35.891Z,101891.13
2018-10-18T20:22:05.635Z,101896.16
2018-10-18T20:24:33.983Z,101897.20
2018-10-18T20:27:02.579Z,101905.84
2018-10-18T20:29:30.871Z,101905.14
2018-10-18T20:31:59.160Z,101894.22
2018-10-18T20:34:27.457Z,101898.64
2018-10-18T20:36:55.820Z,101900.19
2018-10-18T20:39:24.103Z,101902.71
2018-10-18T20:41:52.419Z,101895.98
2018-10-18T20:44:20.711Z,101894.87
2018-10-18T20:46:49.100Z,101896.97
2018-10-18T20:49:17.323Z,101891.25
2018-10-18T20:51:45.654Z,101900.29
2018-10-18T20:54:14.015Z,101892.07
2018-10-18T20:56:42.223Z,101891.12
2018-10-18T20:59:10.503Z,101889.37
2018-10-18T21:01:38.806Z,101894.16
2018-10-18T21:04:07.066Z,101887.21
2018-10-18T21:06:35.527Z,101886.38
2018-10-18T21:09:03.801Z,101890.63
2018-10-18T21:11:32.066Z,101891.23
2018-10-18T21:14:00.353Z,101894.66
2018-10-18T21:16:28.683Z,101896.71
2018-10-18T21:18:56.962Z,101893.08
2018-10-18T21:21:25.267Z,101893.83
2018-10-18T21:23:53.818Z,101893.23
2018-10-18T21:26:22.256Z,101891.20
2018-10-18T21:28:50.554Z,101889.88
2018-10-18T21:31:18.828Z,101889.27
2018-10-18T21:33:47.141Z,101886.28
2018-10-18T21:36:15.422Z,101889.02
2018-10-18T21:38:43.683Z,101885.39
2018-10-18T21:41:12.051Z,101886.17
2018-10-18T21:43:40.264Z,101884.78
2018-10-18T21:46:08.582Z,101884.78
2018-10-18T21:48:37.158Z,101888.66
2018-10-18T21:51:05.641Z,101880.38
2018-10-18T21:53:33.899Z,101880.38
2018-10-18T21:56:02.206Z,101890.97
2018-10-18T21:58:30.495Z,101888.32
2018-10-18T22:00:58.771Z,101889.64
2018-10-18T22:03:27.091Z,101884.91
2018-10-18T22:05:55.348Z,101893.06
2018-10-18T22:08:23.735Z,101886.38
2018-10-18T22:10:52.050Z,101885.67
2018-10-18T22:13:20.345Z,101887.16
2018-10-18T22:15:48.610Z,101884.07
2018-10-18T22:18:16.978Z,101878.78
2018-10-18T22:20:45.286Z,101884.31
2018-10-18T22:23:13.618Z,101873.05
2018-10-18T22:25:41.910Z,101873.05
2018-10-18T22:28:10.177Z,101870.31
2018-10-18T22:30:38.463Z,101878.83
2018-10-18T22:33:06.819Z,101875.03
2018-10-18T22:35:35.095Z,101873.30
2018-10-18T22:38:03.420Z,101877.59
2018-10-18T22:40:31.683Z,101873.48
2018-10-18T22:42:59.979Z,101875.83
2018-10-18T22:45:28.236Z,101877.08
2018-10-18T22:47:56.515Z,101872.19
2018-10-18T22:50:24.865Z,101871.05
2018-10-18T22:52:53.239Z,101865.35
2018-10-18T22:55:21.519Z,101868.03
2018-10-18T22:57:49.814Z,101868.08
2018-10-18T23:00:18.143Z,101870.15
2018-10-18T23:02:46.439Z,101863.95
2018-10-18T23:05:14.774Z,101866.86
2018-10-18T23:07:42.995Z,101866.90
2018-10-18T23:10:11.309Z,101867.38
2018-10-18T23:12:39.583Z,101865.87
2018-10-18T23:15:09.092Z,101864.92
2018-10-18T23:17:37.406Z,101863.30
2018-10-18T23:20:06.819Z,101858.77
2018-10-18T23:22:35.106Z,101863.96
2018-10-18T23:25:03.443Z,101865.57
2018-10-18T23:27:32.821Z,101861.78
2018-10-18T23:30:01.093Z,101869.23
2018-10-18T23:32:30.427Z,101860.61
2018-10-18T23:34:59.168Z,101863.16
2018-10-18T23:37:27.488Z,101866.63
2018-10-18T23:39:55.795Z,101868.78
2018-10-18T23:42:24.086Z,101871.47
2018-10-18T23:44:52.389Z,101865.47
2018-10-18T23:47:20.727Z,101867.94
2018-10-18T23:49:49.255Z,101863.16
2018-10-18T23:52:17.543Z,101859.69
2018-10-18T23:54:45.850Z,101861.84
2018-10-18T23:57:14.240Z,101855.11
2018-10-18T23:59:42.435Z,101856.42
